.
WxDataArchive / Data Records for 2015-10-11
2015-10-10 October 2015 2015-10-12

Data Records for Sunday, 11 October 2015

Time	Temp	Chill	HIndex	Humid	Dewpt	 Wind 	HiWind	WindDir	Rain 	Barom
-----	----	-----	------	-----	-----	------	------	-------	-----	-----
00:00	49.6	49.6	49.6	79	43.4	0	0	---	0.00	29.984 
00:05	49.6	49.6	49.6	79	43.4	0	0	---	0.00	29.984 
00:10	49.6	49.6	49.6	79	43.4	0	0	---	0.00	29.984 
00:15	49.5	49.5	49.5	79	43.3	0	0	---	0.00	29.984 
00:20	49.6	49.6	49.6	79	43.4	0	0	---	0.00	29.984 
00:25	49.6	49.6	49.6	79	43.4	0	0	---	0.00	29.984 
00:30	49.8	49.8	49.8	79	43.6	0	0	---	0.00	29.982 
00:35	49.8	49.8	49.8	78	43.2	0	0	---	0.00	29.982 
00:40	49.9	49.9	49.9	78	43.3	0	0	---	0.00	29.982 
00:45	50.1	50.1	50.1	78	43.5	0	0	---	0.00	29.977 
00:50	50.1	50.1	50.1	77	43.2	0	0	---	0.00	29.977 
00:55	50.1	50.1	50.1	77	43.2	0	0	---	0.00	29.977 
01:00	50.2	50.2	50.2	77	43.3	0	0	---	0.00	29.967 
01:05	50.4	50.4	50.4	77	43.5	0	0	---	0.00	29.967 
01:10	50.4	50.4	50.4	77	43.5	0	0	---	0.00	29.967 
01:15	50.4	50.4	50.4	77	43.5	0	0	---	0.00	29.965 
01:20	50.5	50.5	50.5	77	43.6	0	0	---	0.00	29.965 
01:25	50.7	50.7	50.7	76	43.4	0	0	---	0.00	29.965 
01:30	50.7	50.7	50.7	76	43.4	0	0	---	0.00	29.957 
01:35	50.8	50.8	50.8	76	43.5	0	0	---	0.00	29.957 
01:40	50.8	50.8	50.8	76	43.5	0	0	---	0.00	29.957 
01:45	50.8	50.8	50.8	76	43.5	0	0	---	0.00	29.955 
01:50	50.8	50.8	50.8	75	43.2	0	0	---	0.00	29.955 
01:55	50.7	50.7	50.7	76	43.4	0	1	270	0.00	29.955 
02:00	50.8	50.8	50.8	76	43.5	0	0	---	0.00	29.947 
02:05	50.8	50.8	50.8	76	43.5	0	0	---	0.00	29.947 
02:10	51.0	51.0	51.0	75	43.4	0	0	---	0.00	29.947 
02:15	50.8	50.8	50.8	75	43.2	0	0	---	0.00	29.952 
02:20	50.8	50.8	50.8	75	43.2	0	0	---	0.00	29.952 
02:25	50.8	50.8	50.8	75	43.2	0	0	---	0.00	29.952 
02:30	50.8	50.8	50.8	75	43.2	0	0	---	0.00	29.946 
02:35	51.0	51.0	51.0	75	43.4	0	0	---	0.00	29.946 
02:40	51.0	51.0	51.0	75	43.4	0	0	---	0.00	29.946 
02:45	51.0	51.0	51.0	75	43.4	0	0	---	0.00	29.946 
02:50	51.0	51.0	51.0	75	43.4	0	0	---	0.00	29.946 
02:55	51.0	51.0	51.0	75	43.4	0	0	---	0.00	29.946 
03:00	50.8	50.8	50.8	75	43.2	0	0	---	0.00	29.947 
03:05	50.7	50.7	50.7	75	43.1	0	0	---	0.00	29.947 
03:10	50.5	50.5	50.5	76	43.2	0	0	---	0.00	29.947 
03:15	50.4	50.4	50.4	76	43.1	0	0	---	0.00	29.945 
03:20	50.1	50.1	50.1	77	43.2	0	0	---	0.00	29.945 
03:25	50.1	50.1	50.1	77	43.2	0	1	270	0.00	29.945 
03:30	49.9	49.9	49.9	77	43.0	0	0	---	0.00	29.938 
03:35	49.9	49.9	49.9	77	43.0	0	0	---	0.00	29.938 
03:40	49.9	49.9	49.9	77	43.0	0	0	---	0.00	29.938 
03:45	50.1	50.1	50.1	77	43.2	0	0	---	0.00	29.940 
03:50	50.1	50.1	50.1	77	43.2	0	0	---	0.00	29.940 
03:55	50.1	50.1	50.1	77	43.2	0	0	---	0.00	29.940 
04:00	50.2	50.2	50.2	77	43.3	0	0	---	0.00	29.933 
04:05	50.2	50.2	50.2	77	43.3	0	0	---	0.00	29.933 
04:10	50.2	50.2	50.2	77	43.3	0	0	---	0.00	29.933 
04:15	50.4	50.4	50.4	77	43.5	0	1	270	0.00	29.931 
04:20	50.4	50.4	50.4	77	43.5	0	0	---	0.00	29.931 
04:25	50.4	50.4	50.4	77	43.5	0	0	---	0.00	29.931 
04:30	50.5	50.5	50.5	77	43.6	0	0	---	0.00	29.930 
04:35	50.7	50.7	50.7	77	43.8	0	0	---	0.00	29.930 
04:40	50.8	50.8	50.8	77	43.9	0	1	270	0.00	29.930 
04:45	51.3	51.3	51.3	76	44.0	0	2	270	0.00	29.927 
04:50	51.4	51.4	51.4	75	43.7	0	1	270	0.00	29.927 
04:55	51.4	51.4	51.4	75	43.7	0	0	---	0.00	29.927 
05:00	51.3	51.3	51.3	75	43.6	0	0	---	0.00	29.927 
05:05	51.1	51.1	51.1	75	43.5	0	0	---	0.00	29.927 
05:10	51.0	51.0	51.0	76	43.7	0	0	---	0.00	29.927 
05:15	50.8	50.8	50.8	76	43.5	0	0	---	0.00	29.926 
05:20	50.7	50.7	50.7	76	43.4	0	0	---	0.00	29.926 
05:25	50.5	50.5	50.5	77	43.6	0	0	---	0.00	29.926 
05:30	50.4	50.4	50.4	77	43.5	0	0	---	0.00	29.932 
05:35	50.2	50.2	50.2	77	43.3	0	0	---	0.00	29.932 
05:40	50.1	50.1	50.1	78	43.5	0	0	---	0.00	29.932 
05:45	49.9	49.9	49.9	78	43.3	0	0	---	0.00	29.931 
05:50	49.8	49.8	49.8	79	43.6	0	0	---	0.00	29.931 
05:55	49.6	49.6	49.6	79	43.4	0	0	---	0.00	29.931 
06:00	49.6	49.6	49.6	79	43.4	0	0	---	0.00	29.931 
06:05	49.5	49.5	49.5	79	43.3	0	0	---	0.00	29.931 
06:10	49.2	49.2	49.2	80	43.3	0	0	---	0.00	29.931 
06:15	49.1	49.1	49.1	80	43.2	0	0	---	0.00	29.933 
06:20	48.9	48.9	48.9	80	43.0	0	0	---	0.00	29.933 
06:25	48.8	48.8	48.8	81	43.2	0	0	---	0.00	29.933 
06:30	48.6	48.6	48.6	81	43.0	0	0	---	0.00	29.933 
06:35	48.5	48.5	48.5	82	43.3	0	0	---	0.00	29.933 
06:40	48.5	48.5	48.5	82	43.3	0	0	---	0.00	29.933 
06:45	48.2	48.2	48.2	82	43.0	0	0	---	0.00	29.931 
06:50	48.0	48.0	48.0	82	42.8	0	0	---	0.00	29.931 
06:55	47.9	47.9	47.9	83	43.0	0	0	---	0.00	29.931 
07:00	47.7	47.7	47.7	83	42.8	0	0	---	0.00	29.929 
07:05	47.6	47.6	47.6	84	43.0	0	0	---	0.00	29.929 
07:10	47.6	47.6	47.6	84	43.0	0	0	---	0.00	29.929 
07:15	47.4	47.4	47.4	84	42.8	0	0	---	0.00	29.934 
07:20	47.3	47.3	47.3	84	42.7	0	0	---	0.00	29.934 
07:25	47.3	47.3	47.3	84	42.7	0	0	---	0.00	29.934 
07:30	47.1	47.1	47.1	84	42.5	0	0	---	0.00	29.932 
07:35	47.1	47.1	47.1	85	42.8	0	0	---	0.00	29.932 
07:40	47.1	47.1	47.1	85	42.8	0	0	---	0.00	29.932 
07:45	47.0	47.0	47.0	85	42.7	0	0	---	0.00	29.930 
07:50	46.8	46.8	46.8	85	42.5	0	0	---	0.00	29.930 
07:55	46.7	46.7	46.7	85	42.4	0	0	---	0.00	29.930 
08:00	46.7	46.7	46.7	86	42.7	0	0	---	0.00	29.924 
08:05	46.7	46.7	46.7	86	42.7	0	0	---	0.00	29.924 
08:10	46.8	46.8	46.8	86	42.8	0	0	---	0.00	29.924 
08:15	47.0	47.0	47.0	86	43.0	0	1	270	0.00	29.925 
08:20	47.1	47.1	47.1	86	43.1	0	0	---	0.00	29.925 
08:25	47.3	47.3	47.3	86	43.3	0	0	---	0.00	29.925 
08:30	47.3	47.3	47.3	86	43.3	0	0	---	0.00	29.927 
08:35	47.4	47.4	47.4	86	43.4	0	0	---	0.00	29.927 
08:40	47.7	47.7	47.7	86	43.7	0	0	---	0.00	29.927 
08:45	48.0	48.0	48.0	86	44.0	0	0	---	0.00	29.923 
08:50	48.5	48.5	48.5	85	44.2	0	1	270	0.00	29.923 
08:55	49.1	49.1	49.1	85	44.8	0	1	270	0.00	29.923 
09:00	49.6	49.6	49.6	83	44.7	0	1	270	0.00	29.915 
09:05	50.2	50.2	50.2	82	44.9	0	0	---	0.00	29.915 
09:10	50.8	50.8	50.8	81	45.2	0	1	270	0.00	29.915 
09:15	51.3	51.3	51.3	79	45.0	0	1	270	0.00	29.921 
09:20	51.9	51.9	51.9	78	45.3	0	1	270	0.00	29.921 
09:25	52.3	52.3	52.3	77	45.3	0	1	270	0.00	29.921 
09:30	52.9	52.9	52.9	75	45.2	0	2	270	0.00	29.920 
09:35	53.3	53.3	53.3	74	45.2	0	1	270	0.00	29.920 
09:40	53.8	53.8	53.8	73	45.3	0	2	270	0.00	29.920 
09:45	54.4	54.4	54.4	72	45.6	0	2	270	0.00	29.920 
09:50	54.8	54.8	54.8	70	45.2	0	3	270	0.00	29.920 
09:55	55.3	55.3	55.3	69	45.3	0	3	270	0.00	29.920 
10:00	55.7	55.7	55.7	68	45.3	0	3	270	0.00	29.918 
10:05	56.2	56.2	56.2	68	45.8	1	4	270	0.00	29.918 
10:10	56.6	56.6	56.6	66	45.4	1	5	270	0.00	29.918 
10:15	57.2	57.2	57.2	65	45.5	0	1	270	0.00	29.915 
10:20	57.8	57.8	57.8	65	46.1	1	3	270	0.00	29.915 
10:25	58.4	58.4	58.4	64	46.3	0	3	270	0.00	29.915 
10:30	58.9	58.9	58.9	62	45.9	0	2	270	0.00	29.914 
10:35	59.5	59.5	59.5	61	46.0	0	2	270	0.00	29.914 
10:40	59.8	59.8	59.8	60	45.9	1	3	270	0.00	29.914 
10:45	60.1	60.1	60.1	61	46.6	0	1	270	0.00	29.907 
10:50	60.5	60.5	60.5	59	46.1	0	4	292	0.00	29.907 
10:55	61.0	61.0	61.0	59	46.6	0	2	292	0.00	29.907 
11:00	61.3	61.3	61.3	58	46.4	1	3	315	0.00	29.905 
11:05	61.6	61.6	61.6	58	46.7	1	3	315	0.00	29.905 
11:10	62.0	62.0	62.0	57	46.6	1	3	292	0.00	29.905 
11:15	62.3	62.3	62.3	56	46.4	1	4	315	0.00	29.903 
11:20	62.6	62.6	62.6	55	46.2	1	4	292	0.00	29.903 
11:25	63.1	63.1	63.1	56	47.1	0	2	315	0.00	29.903 
11:30	63.7	63.7	63.7	54	46.7	0	2	315	0.00	29.902 
11:35	64.2	64.2	64.2	53	46.7	0	4	315	0.00	29.902 
11:40	64.3	64.3	64.3	52	46.3	1	4	315	0.00	29.902 
11:45	64.3	64.3	64.3	54	47.3	1	4	270	0.00	29.902 
11:50	64.8	64.8	64.8	53	47.3	1	5	270	0.00	29.902 
11:55	65.2	65.2	65.2	51	46.6	1	4	270	0.00	29.902 
12:00	65.5	65.5	65.5	51	46.9	0	3	270	0.00	29.897 
12:05	66.0	66.0	66.0	50	46.8	0	2	270	0.00	29.897 
12:10	66.3	66.3	66.3	50	47.1	1	4	270	0.00	29.897 
12:15	66.4	66.4	66.4	50	47.2	1	4	270	0.00	29.886 
12:20	66.8	66.8	66.8	50	47.6	1	4	270	0.00	29.886 
12:25	67.3	67.3	67.3	49	47.5	1	3	292	0.00	29.886 
12:30	67.8	67.8	67.8	48	47.4	0	1	292	0.00	29.881 
12:35	68.4	68.4	68.4	48	47.9	0	1	292	0.00	29.881 
12:40	68.8	68.8	68.8	47	47.7	1	4	248	0.00	29.881 
12:45	68.8	68.8	68.8	45	46.6	1	4	248	0.00	29.880 
12:50	68.4	68.4	68.4	46	46.8	1	4	270	0.00	29.880 
12:55	68.4	68.4	68.4	45	46.2	1	4	270	0.00	29.880 
13:00	68.4	68.4	68.4	45	46.2	1	3	270	0.00	29.874 
13:05	68.6	68.6	68.6	46	47.0	1	4	270	0.00	29.874 
13:10	68.9	68.9	68.9	43	45.5	1	3	292	0.00	29.874 
13:15	69.1	69.1	69.1	43	45.7	1	3	315	0.00	29.863 
13:20	69.3	69.3	69.3	42	45.2	1	4	270	0.00	29.863 
13:25	69.3	69.3	69.3	44	46.4	1	3	270	0.00	29.863 
13:30	69.8	69.8	69.8	43	46.3	1	3	315	0.00	29.857 
13:35	70.1	70.1	70.1	42	45.9	1	4	270	0.00	29.857 
13:40	70.3	70.3	70.3	40	44.8	1	3	270	0.00	29.857 
13:45	70.3	70.3	70.3	40	44.8	1	3	292	0.00	29.845 
13:50	70.3	70.3	70.3	39	44.2	1	3	292	0.00	29.845 
13:55	70.3	70.3	70.3	39	44.2	1	3	292	0.00	29.845 
14:00	70.6	70.6	70.6	38	43.7	1	3	270	0.00	29.835 
14:05	70.8	70.8	70.8	38	43.9	1	4	270	0.00	29.835 
14:10	70.9	70.9	70.9	38	44.0	1	3	292	0.00	29.835 
14:15	71.1	71.1	71.1	39	44.9	1	3	248	0.00	29.820 
14:20	71.5	71.5	71.5	37	43.8	1	3	315	0.00	29.820 
14:25	71.8	71.8	71.8	37	44.1	1	3	315	0.00	29.820 
14:30	72.3	72.3	72.3	37	44.6	0	3	248	0.00	29.812 
14:35	72.5	72.5	72.5	35	43.3	0	2	248	0.00	29.812 
14:40	72.8	72.8	72.8	34	42.8	1	2	270	0.00	29.812 
14:45	73.2	73.2	73.2	35	43.9	0	2	292	0.00	29.802 
14:50	73.2	73.2	73.2	35	43.9	1	3	248	0.00	29.802 
14:55	73.0	73.0	73.0	32	41.4	1	4	270	0.00	29.802 
15:00	72.8	72.8	72.8	31	40.4	1	4	248	0.00	29.796 
15:05	72.8	72.8	72.8	33	42.0	0	3	315	0.00	29.796 
15:10	73.0	73.0	73.0	33	42.2	0	2	315	0.00	29.796 
15:15	73.2	73.2	73.2	31	40.7	1	3	90	0.00	29.789 
15:20	73.3	73.3	73.3	33	42.4	1	5	0	0.00	29.789 
15:25	73.5	73.5	73.5	32	41.8	0	2	338	0.00	29.789 
15:30	73.7	73.7	73.7	31	41.2	1	3	270	0.00	29.784 
15:35	73.7	73.7	73.7	31	41.2	0	3	270	0.00	29.784 
15:40	73.7	73.7	73.7	31	41.2	1	4	270	0.00	29.784 
15:45	74.0	74.0	74.0	31	41.4	0	2	270	0.00	29.779 
15:50	74.0	74.0	74.0	30	40.6	1	2	315	0.00	29.779 
15:55	74.0	74.0	74.0	31	41.4	0	2	338	0.00	29.779 
16:00	73.9	73.9	73.9	30	40.5	1	3	315	0.00	29.777 
16:05	73.9	73.9	73.9	31	41.3	0	2	270	0.00	29.777 
16:10	73.9	73.9	73.9	31	41.3	0	3	270	0.00	29.777 
16:15	73.9	73.9	73.9	30	40.5	0	2	270	0.00	29.767 
16:20	73.9	73.9	73.9	30	40.5	1	3	270	0.00	29.767 
16:25	73.7	73.7	73.7	30	40.3	1	3	248	0.00	29.767 
16:30	73.7	73.7	73.7	31	41.2	0	2	292	0.00	29.766 
16:35	73.7	73.7	73.7	31	41.2	0	2	292	0.00	29.766 
16:40	73.7	73.7	73.7	32	42.0	0	3	292	0.00	29.766 
16:45	73.7	73.7	73.7	31	41.2	0	2	270	0.00	29.764 
16:50	73.7	73.7	73.7	30	40.3	0	3	270	0.00	29.764 
16:55	73.7	73.7	73.7	29	39.5	1	3	248	0.00	29.764 
17:00	73.7	73.7	73.7	29	39.5	1	4	338	0.00	29.764 
17:05	73.7	73.7	73.7	29	39.5	0	4	248	0.00	29.764 
17:10	73.7	73.7	73.7	31	41.2	0	2	248	0.00	29.764 
17:15	73.5	73.5	73.5	30	40.2	1	4	248	0.00	29.760 
17:20	73.5	73.5	73.5	30	40.2	1	4	292	0.00	29.760 
17:25	73.5	73.5	73.5	30	40.2	0	3	292	0.00	29.760 
17:30	73.5	73.5	73.5	30	40.2	1	3	248	0.00	29.751 
17:35	73.3	73.3	73.3	31	40.8	0	3	248	0.00	29.751 
17:40	73.3	73.3	73.3	32	41.6	0	2	248	0.00	29.751 
17:45	73.2	73.2	73.2	31	40.7	1	4	315	0.00	29.753 
17:50	73.2	73.2	73.2	32	41.6	0	3	292	0.00	29.753 
17:55	73.0	73.0	73.0	32	41.4	0	3	270	0.00	29.753 
18:00	72.8	72.8	72.8	33	42.0	0	1	270	0.00	29.752 
18:05	72.7	72.7	72.7	33	41.9	0	2	270	0.00	29.752 
18:10	72.5	72.5	72.5	34	42.5	0	2	270	0.00	29.752 
18:15	72.3	72.3	72.3	34	42.3	0	3	270	0.00	29.753 
18:20	72.0	72.0	72.0	35	42.8	0	1	270	0.00	29.753 
18:25	71.8	71.8	71.8	36	43.4	0	1	270	0.00	29.753 
18:30	71.5	71.5	71.5	36	43.1	0	1	270	0.00	29.755 
18:35	71.1	71.1	71.1	36	42.8	0	1	270	0.00	29.755 
18:40	70.9	70.9	70.9	36	42.6	0	1	270	0.00	29.755 
18:45	70.8	70.8	70.8	37	43.2	0	1	270	0.00	29.755 
18:50	70.4	70.4	70.4	38	43.6	0	1	270	0.00	29.755 
18:55	70.1	70.1	70.1	38	43.3	0	2	270	0.00	29.755 
19:00	69.8	69.8	69.8	39	43.7	0	1	270	0.00	29.754 
19:05	69.4	69.4	69.4	39	43.4	0	1	270	0.00	29.754 
19:10	69.1	69.1	69.1	39	43.1	0	1	270	0.00	29.754 
19:15	68.8	68.8	68.8	39	42.8	0	1	270	0.00	29.756 
19:20	68.4	68.4	68.4	40	43.1	0	1	270	0.00	29.756 
19:25	68.3	68.3	68.3	40	43.0	0	1	270	0.00	29.756 
19:30	67.9	67.9	67.9	40	42.7	0	0	---	0.00	29.761 
19:35	67.6	67.6	67.6	41	43.1	0	0	---	0.00	29.761 
19:40	67.3	67.3	67.3	41	42.8	0	0	---	0.00	29.761 
19:45	66.9	66.9	66.9	41	42.4	0	0	---	0.00	29.768 
19:50	66.8	66.8	66.8	42	43.0	0	1	270	0.00	29.768 
19:55	66.6	66.6	66.6	42	42.8	0	1	270	0.00	29.768 
20:00	66.4	66.4	66.4	42	42.6	0	1	270	0.00	29.770 
20:05	66.1	66.1	66.1	43	42.9	0	0	---	0.00	29.770 
20:10	66.0	66.0	66.0	43	42.9	0	1	270	0.00	29.770 
20:15	65.8	65.8	65.8	43	42.7	0	1	270	0.00	29.763 
20:20	65.5	65.5	65.5	44	43.0	0	0	---	0.00	29.763 
20:25	65.3	65.3	65.3	44	42.8	0	1	270	0.00	29.763 
20:30	65.2	65.2	65.2	44	42.7	0	1	270	0.00	29.759 
20:35	65.2	65.2	65.2	44	42.7	0	1	270	0.00	29.759 
20:40	65.0	65.0	65.0	44	42.6	0	0	---	0.00	29.759 
20:45	64.8	64.8	64.8	45	43.0	0	1	270	0.00	29.759 
20:50	64.7	64.7	64.7	44	42.3	0	1	270	0.00	29.759 
20:55	64.7	64.7	64.7	45	42.9	0	0	---	0.00	29.759 
21:00	64.5	64.5	64.5	45	42.7	0	1	270	0.00	29.758 
21:05	64.3	64.3	64.3	45	42.5	0	1	270	0.00	29.758 
21:10	64.2	64.2	64.2	46	43.0	0	1	270	0.00	29.758 
21:15	64.0	64.0	64.0	45	42.2	0	1	270	0.00	29.752 
21:20	63.9	63.9	63.9	45	42.1	0	1	270	0.00	29.752 
21:25	63.9	63.9	63.9	46	42.7	0	0	---	0.00	29.752 
21:30	63.7	63.7	63.7	46	42.5	0	1	270	0.00	29.748 
21:35	63.5	63.5	63.5	46	42.3	0	1	270	0.00	29.748 
21:40	63.5	63.5	63.5	46	42.3	0	1	270	0.00	29.748 
21:45	63.4	63.4	63.4	47	42.8	0	1	270	0.00	29.742 
21:50	63.2	63.2	63.2	47	42.6	0	1	270	0.00	29.742 
21:55	63.2	63.2	63.2	47	42.6	0	1	270	0.00	29.742 
22:00	63.2	63.2	63.2	47	42.6	0	2	270	0.00	29.741 
22:05	63.2	63.2	63.2	47	42.6	0	1	270	0.00	29.741 
22:10	63.2	63.2	63.2	47	42.6	0	1	270	0.00	29.741 
22:15	63.1	63.1	63.1	47	42.5	0	1	270	0.00	29.742 
22:20	62.9	62.9	62.9	48	42.9	0	0	---	0.00	29.742 
22:25	62.7	62.7	62.7	48	42.7	0	1	270	0.00	29.742 
22:30	62.7	62.7	62.7	49	43.3	0	1	270	0.00	29.749 
22:35	62.6	62.6	62.6	50	43.7	0	1	270	0.00	29.749 
22:40	62.4	62.4	62.4	50	43.5	0	1	270	0.00	29.749 
22:45	62.4	62.4	62.4	51	44.0	0	0	---	0.00	29.751 
22:50	62.3	62.3	62.3	51	43.9	0	1	270	0.00	29.751 
22:55	62.3	62.3	62.3	52	44.4	0	1	270	0.00	29.751 
23:00	62.1	62.1	62.1	53	44.8	0	0	---	0.00	29.750 
23:05	62.0	62.0	62.0	53	44.7	0	1	270	0.00	29.750 
23:10	61.8	61.8	61.8	54	45.0	0	0	---	0.00	29.750 
23:15	61.6	61.6	61.6	54	44.8	0	1	270	0.00	29.746 
23:20	61.6	61.6	61.6	55	45.3	0	0	---	0.00	29.746 
23:25	61.5	61.5	61.5	55	45.2	0	1	270	0.00	29.746 
23:30	61.3	61.3	61.3	56	45.5	0	1	270	0.00	29.748 
23:35	61.3	61.3	61.3	56	45.5	0	2	270	0.00	29.748 
23:40	61.3	61.3	61.3	56	45.5	0	1	270	0.00	29.748 
23:45	61.3	61.3	61.3	56	45.5	0	1	270	0.00	29.748 
23:50	61.3	61.3	61.3	56	45.5	0	2	270	0.00	29.748 
23:55	61.3	61.3	61.3	56	45.5	0	2	270	0.00	29.748 

CoCoRaHS
IN-AL-39
A2 Web Hosting
Creative Commons License
GoDaddy
search engine by freefind advanced

loaded 2018-11-22 05:25:18 • last modified 2010-11-18 10:43:29
Privacy PolicyDisclaimer
• wx.awcolley.com is powered by PmWiki v.2002016 •
• all content (unless otherwise noted) © 2018 A W Colley